createdAt,value
2023-03-08T00:02:20.541Z,1005.30
2023-03-08T00:08:07.879Z,1005.27
2023-03-08T00:13:15.800Z,1005.21
2023-03-08T00:18:26.994Z,1005.13
2023-03-08T00:23:51.189Z,1005.10
2023-03-08T00:28:55.408Z,1005.12
2023-03-08T00:34:07.512Z,1005.06
2023-03-08T00:39:14.832Z,1005.08
2023-03-08T00:44:22.128Z,1005.13
2023-03-08T00:49:29.399Z,1005.16
2023-03-08T00:54:36.692Z,1005.05
2023-03-08T00:59:43.838Z,1005.04
2023-03-08T01:04:51.026Z,1005.15
2023-03-08T01:09:58.207Z,1005.18
2023-03-08T01:15:06.018Z,1005.06
2023-03-08T01:20:13.238Z,1004.93
2023-03-08T01:25:20.540Z,1004.74
2023-03-08T01:30:27.696Z,1004.69
2023-03-08T01:35:34.937Z,1004.50
2023-03-08T01:40:42.127Z,1004.47
2023-03-08T01:45:49.329Z,1004.31
2023-03-08T01:50:56.631Z,1004.23
2023-03-08T01:56:03.943Z,1004.10
2023-03-08T02:01:11.432Z,1003.81
2023-03-08T02:06:18.883Z,1003.75
2023-03-08T02:11:26.225Z,1003.63
2023-03-08T02:16:33.582Z,1003.56
2023-03-08T02:21:40.826Z,1003.44
2023-03-08T02:26:48.407Z,1003.34
2023-03-08T02:32:00.259Z,1003.20
2023-03-08T02:37:10.851Z,1003.18
2023-03-08T02:42:18.183Z,1003.12
2023-03-08T02:47:29.593Z,1003.15
2023-03-08T02:53:39.955Z,1003.20
2023-03-08T02:58:07.733Z,1003.31
2023-03-08T03:03:28.761Z,1003.38
2023-03-08T03:08:32.042Z,1003.31
2023-03-08T03:13:42.509Z,1003.26
2023-03-08T03:18:56.432Z,1003.19
2023-03-08T03:24:12.695Z,1003.12
2023-03-08T03:29:20.321Z,1003.01
2023-03-08T03:34:34.339Z,1002.94
2023-03-08T03:39:42.072Z,1002.89
2023-03-08T03:44:51.533Z,1002.72
2023-03-08T03:50:03.031Z,1002.63
2023-03-08T03:55:49.452Z,1002.59
2023-03-08T04:01:00.254Z,1002.36
2023-03-08T04:06:14.965Z,1002.29
2023-03-08T04:11:22.417Z,1002.22
2023-03-08T04:16:36.201Z,1002.13
2023-03-08T04:22:18.595Z,1001.97
2023-03-08T04:28:01.732Z,1001.76
2023-03-08T04:33:18.230Z,1001.62
2023-03-08T04:38:25.851Z,1001.59
2023-03-08T04:43:36.832Z,1001.52
2023-03-08T04:48:59.379Z,1001.43
2023-03-08T04:54:15.543Z,1001.38
2023-03-08T04:59:22.974Z,1001.42
2023-03-08T05:04:30.868Z,1001.45
2023-03-08T05:09:38.554Z,1001.27
2023-03-08T05:14:47.234Z,1001.20
2023-03-08T05:19:55.222Z,1001.09
2023-03-08T05:25:08.306Z,1001.18
2023-03-08T05:30:15.738Z,1001.07
2023-03-08T05:35:23.316Z,1001.12
2023-03-08T05:40:35.377Z,1001.11
2023-03-08T05:46:18.450Z,1001.02
2023-03-08T05:51:27.162Z,1000.97
2023-03-08T05:57:13.049Z,1000.97
2023-03-08T06:01:46.634Z,1000.85
2023-03-08T06:06:54.197Z,1000.89
2023-03-08T06:12:17.455Z,1000.93
2023-03-08T06:17:19.021Z,1000.92
2023-03-08T06:22:34.988Z,1000.89
2023-03-08T06:28:17.644Z,1000.77
2023-03-08T06:33:36.234Z,1000.87
2023-03-08T06:38:43.082Z,1000.81
2023-03-08T06:43:50.647Z,1000.73
2023-03-08T06:48:58.134Z,1000.51
2023-03-08T06:54:05.494Z,1000.40
2023-03-08T06:59:12.954Z,1000.53
2023-03-08T07:04:20.489Z,1000.42
2023-03-08T07:09:28.036Z,1000.28
2023-03-08T07:14:35.293Z,1000.05
2023-03-08T07:19:42.880Z,999.99
2023-03-08T07:25:09.393Z,1000.00
2023-03-08T07:33:42.062Z,1000.03
2023-03-08T07:35:41.891Z,1000.11
2023-03-08T07:40:54.133Z,999.81
2023-03-08T07:46:20.332Z,999.65
2023-03-08T07:51:33.107Z,999.43
2023-03-08T07:56:40.772Z,999.40
2023-03-08T08:01:48.328Z,999.42
2023-03-08T08:06:55.664Z,999.43
2023-03-08T08:12:07.119Z,999.32
2023-03-08T08:17:14.645Z,999.06
2023-03-08T08:22:21.983Z,999.18
2023-03-08T08:27:29.445Z,999.11
2023-03-08T08:32:37.045Z,999.12
2023-03-08T08:37:44.376Z,999.29
2023-03-08T08:43:00.555Z,999.36
2023-03-08T08:48:04.098Z,999.53
2023-03-08T08:53:17.348Z,999.52
2023-03-08T08:58:31.066Z,999.52
2023-03-08T09:03:34.685Z,999.58
2023-03-08T09:08:44.962Z,999.54
2023-03-08T09:13:52.122Z,999.41
2023-03-08T09:18:59.593Z,999.58
2023-03-08T09:24:13.286Z,999.68
2023-03-08T09:29:20.945Z,999.49
2023-03-08T09:34:28.567Z,999.70
2023-03-08T09:39:36.195Z,999.71
2023-03-08T09:44:59.589Z,999.64
2023-03-08T09:50:06.969Z,999.46
2023-03-08T09:55:14.504Z,999.46
2023-03-08T10:00:29.077Z,999.54
2023-03-08T10:05:41.153Z,999.41
2023-03-08T10:10:48.570Z,999.40
2023-03-08T10:15:56.248Z,999.42
2023-03-08T10:21:03.654Z,999.34
2023-03-08T10:26:13.742Z,999.52
2023-03-08T10:31:21.330Z,999.54
2023-03-08T10:36:28.566Z,999.43
2023-03-08T10:41:37.899Z,999.63
2023-03-08T10:46:45.507Z,999.53
2023-03-08T10:51:52.845Z,999.80
2023-03-08T10:57:00.999Z,999.67
2023-03-08T11:02:08.321Z,999.81
2023-03-08T11:07:15.637Z,999.79
2023-03-08T11:12:23.097Z,999.81
2023-03-08T11:17:30.578Z,999.68
2023-03-08T11:22:38.098Z,999.85
2023-03-08T11:27:45.430Z,999.98
2023-03-08T11:32:53.286Z,999.90
2023-03-08T11:38:00.333Z,999.93
2023-03-08T11:43:10.826Z,999.89
2023-03-08T11:48:18.220Z,999.95
2023-03-08T11:53:25.616Z,999.94
2023-03-08T11:58:32.888Z,999.87
2023-03-08T12:03:40.660Z,999.84
2023-03-08T12:08:47.883Z,999.82
2023-03-08T12:13:55.142Z,999.90
2023-03-08T12:19:02.785Z,999.91
2023-03-08T12:24:10.233Z,999.87
2023-03-08T12:29:23.601Z,999.70
2023-03-08T12:34:30.319Z,999.62
2023-03-08T12:39:37.885Z,999.65
2023-03-08T12:44:45.191Z,999.64
2023-03-08T12:49:52.763Z,999.75
2023-03-08T12:54:59.881Z,999.73
2023-03-08T13:00:11.008Z,999.77
2023-03-08T13:05:21.906Z,999.89
2023-03-08T13:10:29.281Z,1000.01
2023-03-08T13:15:36.679Z,999.77
2023-03-08T13:20:44.012Z,999.62
2023-03-08T13:25:51.804Z,999.83
2023-03-08T13:30:58.987Z,999.71
2023-03-08T13:36:06.422Z,999.37
2023-03-08T13:41:13.632Z,999.07
2023-03-08T13:46:21.110Z,999.15
2023-03-08T13:51:28.480Z,999.27
2023-03-08T13:56:36.032Z,999.27
2023-03-08T14:01:43.325Z,999.23
2023-03-08T14:06:50.705Z,999.24
2023-03-08T14:11:57.954Z,999.20
2023-03-08T14:17:05.296Z,999.03
2023-03-08T14:22:12.784Z,998.97
2023-03-08T14:27:19.946Z,998.84
2023-03-08T14:32:27.259Z,998.68
2023-03-08T14:37:37.727Z,998.83
2023-03-08T14:42:45.567Z,998.60
2023-03-08T14:47:52.823Z,998.63
2023-03-08T14:53:00.297Z,998.65
2023-03-08T14:58:07.840Z,998.62
2023-03-08T15:03:30.214Z,998.50
2023-03-08T15:08:37.569Z,998.32
2023-03-08T15:13:45.427Z,998.29
2023-03-08T15:18:56.386Z,998.26
2023-03-08T15:24:03.887Z,998.35
2023-03-08T15:29:11.117Z,998.31
2023-03-08T15:34:18.486Z,997.93
2023-03-08T15:39:25.889Z,998.07
2023-03-08T15:44:33.292Z,998.13
2023-03-08T15:49:40.743Z,998.29
2023-03-08T15:54:48.360Z,998.26
2023-03-08T15:59:55.590Z,998.33
2023-03-08T16:05:02.944Z,998.13
2023-03-08T16:10:11.068Z,998.18
2023-03-08T16:15:18.044Z,998.10
2023-03-08T16:20:25.463Z,998.05
2023-03-08T16:25:32.763Z,997.77
2023-03-08T16:30:40.201Z,997.70
2023-03-08T16:35:47.623Z,997.75
2023-03-08T16:41:06.211Z,997.77
2023-03-08T16:46:02.515Z,997.76
2023-03-08T16:51:09.922Z,997.37
2023-03-08T16:56:17.372Z,997.70
2023-03-08T17:01:24.782Z,997.39
2023-03-08T17:06:32.319Z,997.55
2023-03-08T17:11:39.676Z,997.80
2023-03-08T17:16:46.969Z,998.30
2023-03-08T17:21:54.270Z,998.07
2023-03-08T17:27:01.456Z,998.39
2023-03-08T17:32:08.693Z,998.30
2023-03-08T17:37:15.900Z,998.61
2023-03-08T17:42:23.358Z,998.63
2023-03-08T17:47:30.950Z,998.65
2023-03-08T17:52:38.257Z,998.64
2023-03-08T17:57:45.486Z,998.84
2023-03-08T18:02:53.035Z,998.78
2023-03-08T18:08:00.393Z,998.46
2023-03-08T18:13:07.646Z,998.25
2023-03-08T18:18:15.532Z,998.14
2023-03-08T18:23:22.706Z,998.41
2023-03-08T18:28:30.094Z,998.54
2023-03-08T18:33:37.647Z,998.28
2023-03-08T18:38:45.241Z,998.23
2023-03-08T18:43:52.779Z,998.40
2023-03-08T18:49:00.166Z,998.41
2023-03-08T18:54:07.395Z,998.54
2023-03-08T18:59:14.910Z,998.32
2023-03-08T19:04:22.619Z,998.50
2023-03-08T19:09:30.203Z,998.29
2023-03-08T19:14:37.664Z,998.49
2023-03-08T19:19:45.024Z,998.63
2023-03-08T19:24:52.746Z,998.41
2023-03-08T19:30:00.299Z,998.68
2023-03-08T19:35:07.865Z,998.65
2023-03-08T19:40:15.607Z,998.49
2023-03-08T19:45:23.239Z,998.79
2023-03-08T19:50:30.822Z,998.85
2023-03-08T19:55:38.541Z,998.98
2023-03-08T20:00:46.012Z,998.58
2023-03-08T20:05:53.615Z,998.72
2023-03-08T20:11:01.407Z,999.02
2023-03-08T20:16:09.330Z,999.28
2023-03-08T20:21:17.159Z,998.84
2023-03-08T20:26:24.942Z,998.86
2023-03-08T20:31:32.832Z,998.76
2023-03-08T20:36:40.488Z,998.90
2023-03-08T20:41:47.987Z,999.04
2023-03-08T20:46:55.534Z,998.91
2023-03-08T20:52:03.731Z,998.84
2023-03-08T20:57:11.138Z,998.89
2023-03-08T21:02:18.528Z,998.62
2023-03-08T21:07:25.758Z,998.51
2023-03-08T21:12:33.173Z,998.38
2023-03-08T21:17:40.537Z,998.71
2023-03-08T21:22:47.769Z,998.68
2023-03-08T21:27:55.386Z,998.40
2023-03-08T21:33:02.906Z,998.53
2023-03-08T21:38:10.312Z,998.52
2023-03-08T21:43:18.022Z,998.64
2023-03-08T21:48:25.314Z,998.08
2023-03-08T21:53:32.542Z,998.29
2023-03-08T21:58:39.765Z,998.43
2023-03-08T22:03:46.996Z,998.55
2023-03-08T22:08:54.242Z,998.24
2023-03-08T22:14:01.442Z,998.51
2023-03-08T22:19:08.637Z,998.99
2023-03-08T22:24:15.807Z,999.23
2023-03-08T22:29:22.999Z,999.43
2023-03-08T22:34:30.272Z,999.53
2023-03-08T22:39:37.350Z,999.37
2023-03-08T22:44:44.578Z,999.19
2023-03-08T22:49:51.759Z,999.09
2023-03-08T22:54:58.905Z,998.90
2023-03-08T23:00:10.778Z,999.03
2023-03-08T23:05:15.745Z,999.29
2023-03-08T23:10:23.188Z,999.40
2023-03-08T23:15:31.456Z,999.24
2023-03-08T23:20:39.071Z,999.00
2023-03-08T23:25:49.694Z,998.79
2023-03-08T23:30:56.581Z,998.87
2023-03-08T23:36:04.671Z,999.00
2023-03-08T23:41:11.962Z,998.93
2023-03-08T23:46:19.414Z,998.86
2023-03-08T23:51:26.772Z,998.86
2023-03-08T23:56:34.209Z,998.79
